Time;durP1;ratioP1;P1;durP2;ratioP2;P2;SDS_P1;SDS_P2;PMS_P1;PMS_P2;Temp;Humidity;BMP_temperature;BMP_pressure;BME280_temperature;BME280_humidity;BME280_pressure;Samples;Min_cycle;Max_cycle;Signal;HPM_P1;HPM_P2
2024/01/23 00:00:11;;;;;;;9.43;5.53;;;;;;;-4.67;100.00;100051.22;5034757;28;20088;-66
2024/01/23 00:02:37;;;;;;;10.00;5.60;;;;;;;-4.70;100.00;100032.31;5034353;28;20048;-66
2024/01/23 00:05:03;;;;;;;13.70;5.80;;;;;;;-4.75;100.00;100011.75;5018015;28;20485;-66
2024/01/23 00:07:29;;;;;;;10.80;5.80;;;;;;;-4.72;100.00;100016.84;5051254;28;20044;-67
2024/01/23 00:09:56;;;;;;;11.87;6.17;;;;;;;-4.63;100.00;100010.50;5073880;28;20046;-66
2024/01/23 00:12:22;;;;;;;9.70;6.17;;;;;;;-4.66;100.00;99982.97;5057380;28;20109;-66
2024/01/23 00:14:48;;;;;;;10.97;6.33;;;;;;;-4.60;100.00;99992.25;5073777;28;20878;-66
2024/01/23 00:17:15;;;;;;;8.40;5.57;;;;;;;-4.55;100.00;100017.06;5087248;28;20058;-66
2024/01/23 00:19:41;;;;;;;10.30;5.43;;;;;;;-4.65;100.00;99991.56;5128877;27;20044;-67
2024/01/23 00:22:07;;;;;;;11.57;5.67;;;;;;;-4.61;100.00;100006.94;5094658;28;20089;-67
2024/01/23 00:24:33;;;;;;;12.73;6.33;;;;;;;-4.56;100.00;99979.13;5094771;28;20500;-68
2024/01/23 00:26:59;;;;;;;11.03;6.30;;;;;;;-4.59;100.00;99981.81;5077173;28;20051;-66
2024/01/23 00:29:26;;;;;;;7.90;5.20;;;;;;;-4.59;100.00;99991.34;5113432;28;20123;-67
2024/01/23 00:31:51;;;;;;;9.27;5.60;;;;;;;-4.62;100.00;100014.75;5112489;28;20067;-67
2024/01/23 00:34:17;;;;;;;11.70;6.00;;;;;;;-4.63;100.00;100000.97;5096043;28;20048;-66
2024/01/23 00:36:43;;;;;;;11.27;6.10;;;;;;;-4.60;100.00;99993.09;5079259;28;20043;-67
2024/01/23 00:39:09;;;;;;;12.03;5.87;;;;;;;-4.57;100.00;100018.03;5064152;28;20035;-66
2024/01/23 00:41:35;;;;;;;8.87;5.87;;;;;;;-4.55;100.00;99992.94;5129182;27;20039;-66
2024/01/23 00:44:02;;;;;;;14.60;6.43;;;;;;;-4.62;100.00;99976.75;5078402;28;20039;-66
2024/01/23 00:46:28;;;;;;;9.40;5.97;;;;;;;-4.58;100.00;99983.50;5077963;28;20398;-67
2024/01/23 00:48:54;;;;;;;11.53;6.13;;;;;;;-4.50;100.00;99941.75;5094325;28;20105;-67
2024/01/23 00:51:20;;;;;;;14.07;6.47;;;;;;;-4.59;100.00;99981.81;5095475;28;20035;-67
2024/01/23 00:53:46;;;;;;;8.77;5.23;;;;;;;-4.63;100.00;99962.13;5061583;28;20073;-66
2024/01/23 00:56:12;;;;;;;13.13;6.53;;;;;;;-4.55;100.00;99946.28;5128707;27;20039;-66
2024/01/23 00:58:38;;;;;;;9.40;5.80;;;;;;;-4.50;100.00;99932.25;5077486;28;20035;-68
2024/01/23 01:01:03;;;;;;;12.50;6.40;;;;;;;-4.53;100.00;99960.88;5111221;28;20077;-66
2024/01/23 01:03:30;;;;;;;11.47;6.27;;;;;;;-4.54;100.00;99935.84;5094146;28;20047;-67
2024/01/23 01:05:58;;;;;;;10.60;5.90;;;;;;;-4.44;100.00;99928.56;5110943;28;20136;-67
2024/01/23 01:08:24;;;;;;;11.07;6.13;;;;;;;-4.52;100.00;99939.22;5094658;28;20048;-68
2024/01/23 01:10:49;;;;;;;12.43;6.23;;;;;;;-4.49;100.00;99936.50;5077626;28;20031;-67
2024/01/23 01:13:16;;;;;;;10.57;6.30;;;;;;;-4.48;100.00;99945.13;5111370;28;20078;-66
2024/01/23 01:15:43;;;;;;;9.07;6.23;;;;;;;-4.40;100.00;99938.78;5105983;28;20125;-66
2024/01/23 01:18:10;;;;;;;10.70;6.10;;;;;;;-4.47;100.00;99957.19;5098773;28;20159;-67
2024/01/23 01:20:36;;;;;;;12.60;6.83;;;;;;;-4.46;100.00;99920.84;5085051;27;20043;-67
2024/01/23 01:23:03;;;;;;;13.47;6.63;;;;;;;-4.48;100.00;99953.78;5102521;27;20490;-67
2024/01/23 01:25:29;;;;;;;14.20;6.93;;;;;;;-4.46;100.00;99925.19;5118741;27;20547;-66
2024/01/23 01:27:54;;;;;;;9.30;5.90;;;;;;;-4.52;100.00;99908.13;5118528;27;20116;-67
2024/01/23 01:30:28;;;;;;;10.40;5.77;;;;;;;-4.43;100.00;99928.53;5118661;27;20475;-67
2024/01/23 01:32:57;;;;;;;12.23;6.27;;;;;;;-4.31;100.00;99947.94;5135756;27;20390;-74
2024/01/23 01:35:22;;;;;;;14.20;6.93;;;;;;;-4.48;100.00;99920.06;5135845;27;20039;-67
2024/01/23 01:37:48;;;;;;;10.90;5.70;;;;;;;-4.55;100.00;99904.81;5101442;27;20047;-66
2024/01/23 01:40:15;;;;;;;13.93;6.90;;;;;;;-4.46;100.00;99918.25;5101772;27;20031;-66
2024/01/23 01:42:41;;;;;;;15.13;7.03;;;;;;;-4.39;100.00;99905.91;5101314;27;20138;-66
2024/01/23 01:45:08;;;;;;;14.03;6.67;;;;;;;-4.46;100.00;99907.88;5118627;27;20071;-68
2024/01/23 01:47:34;;;;;;;14.90;6.43;;;;;;;-4.51;100.00;99948.72;5118610;27;20506;-66
2024/01/23 01:50:00;;;;;;;14.37;6.43;;;;;;;-4.46;100.00;99910.47;5118176;27;20478;-67
2024/01/23 01:52:29;;;;;;;13.17;6.53;;;;;;;-4.35;100.00;99878.97;5084209;27;20126;-66
2024/01/23 01:54:55;;;;;;;12.73;6.43;;;;;;;-4.45;100.00;99926.88;5101247;27;20111;-71
2024/01/23 01:57:21;;;;;;;12.23;6.90;;;;;;;-4.38;100.00;99903.25;5118883;27;20043;-65
2024/01/23 01:59:48;;;;;;;13.20;6.70;;;;;;;-4.46;100.00;99923.44;5118940;27;20070;-66
2024/01/23 02:02:17;;;;;;;13.00;6.80;;;;;;;-4.28;100.00;99872.63;5102461;27;20448;-66
2024/01/23 02:04:45;;;;;;;12.90;6.53;;;;;;;-4.33;100.00;99897.91;5049620;28;20918;-68
2024/01/23 02:07:14;;;;;;;;;;;;;;;-4.23;100.00;99894.06;5073442;28;20044;-66
2024/01/23 02:09:39;;;;;;;14.60;6.30;;;;;;;-4.45;100.00;99919.97;5068844;28;19920;-67
2024/01/23 02:12:07;;;;;;;12.70;6.40;;;;;;;-4.38;100.00;99921.41;5048146;28;20093;-71
2024/01/23 02:14:36;;;;;;;16.25;6.60;;;;;;;-4.42;100.00;99919.84;5059191;28;20055;-68
2024/01/23 02:17:05;;;;;;;15.97;6.97;;;;;;;-4.39;100.00;99878.25;5076085;28;20070;-66
2024/01/23 02:19:51;;;;;;;12.53;6.57;;;;;;;-4.37;100.00;99880.78;5051402;28;20405;-66
2024/01/23 02:22:18;;;;;;;18.03;6.97;;;;;;;-4.35;100.00;99878.97;5059747;28;20036;-69
2024/01/23 02:24:45;;;;;;;14.07;6.90;;;;;;;-4.40;100.00;99891.28;5043007;28;20059;-66
2024/01/23 02:27:12;;;;;;;12.30;5.97;;;;;;;-4.48;100.00;99888.97;5032450;28;20139;-67
2024/01/23 02:29:40;;;;;;;14.40;7.17;;;;;;;-4.52;100.00;99905.53;4992867;28;20142;-67
2024/01/23 02:32:06;;;;;;;15.03;6.87;;;;;;;-4.49;100.00;99882.09;4992511;28;20081;-67
2024/01/23 02:34:32;;;;;;;14.03;6.70;;;;;;;-4.51;100.00;99889.09;4961256;28;20600;-67
2024/01/23 02:36:58;;;;;;;10.73;6.47;;;;;;;-4.52;100.00;99886.56;4999798;28;20041;-67
2024/01/23 02:39:28;;;;;;;14.37;6.93;;;;;;;-4.49;100.00;99918.38;5000435;28;20530;-67
2024/01/23 02:41:54;;;;;;;15.13;7.30;;;;;;;-4.55;100.00;99884.91;5033171;28;20421;-66
2024/01/23 02:44:19;;;;;;;14.87;7.03;;;;;;;-4.50;100.00;99880.41;5015703;28;20057;-67
2024/01/23 02:46:45;;;;;;;15.47;6.67;;;;;;;-4.52;100.00;99891.75;5031990;28;20045;-67
2024/01/23 02:49:11;;;;;;;12.13;6.93;;;;;;;-4.50;100.00;99876.97;4999366;28;20057;-67
2024/01/23 02:51:37;;;;;;;13.40;7.17;;;;;;;-4.51;100.00;99860.59;4983256;28;20049;-67
2024/01/23 02:54:05;;;;;;;15.43;6.67;;;;;;;-4.54;100.00;99839.97;5032278;28;20171;-67
2024/01/23 02:56:32;;;;;;;16.67;7.30;;;;;;;-4.52;100.00;99865.84;5032121;28;20049;-67
2024/01/23 02:58:59;;;;;;;14.63;6.90;;;;;;;-4.53;100.00;99854.63;5032064;28;20175;-68
2024/01/23 03:01:26;;;;;;;13.23;7.30;;;;;;;-4.55;100.00;99881.50;5053739;28;20151;-67
2024/01/23 03:03:52;;;;;;;13.77;6.83;;;;;;;-4.59;100.00;99870.41;5051340;27;20043;-67
2024/01/23 03:06:18;;;;;;;15.13;6.87;;;;;;;-4.47;100.00;99825.88;5099738;27;20068;-67
2024/01/23 03:08:44;;;;;;;12.97;6.47;;;;;;;-4.51;100.00;99832.09;5100700;27;20043;-67
2024/01/23 03:11:10;;;;;;;18.03;8.23;;;;;;;-4.48;100.00;99819.00;5099915;27;20039;-68
2024/01/23 03:13:35;;;;;;;15.40;6.93;;;;;;;-4.49;100.00;99873.50;5099600;27;20151;-67
2024/01/23 03:16:04;;;;;;;14.87;7.80;;;;;;;-4.40;100.00;99839.44;5082244;27;20407;-66
2024/01/23 03:18:31;;;;;;;14.40;6.70;;;;;;;-4.51;100.00;99872.69;5115979;27;20086;-67
2024/01/23 03:20:58;;;;;;;12.97;6.47;;;;;;;-4.52;100.00;99829.56;5061843;28;20051;-66
2024/01/23 03:23:26;;;;;;;16.23;7.83;;;;;;;-4.51;100.00;99845.03;5046627;28;20056;-67
2024/01/23 03:26:03;;;;;;;11.43;6.40;;;;;;;-4.52;100.00;99834.72;5096904;28;20069;-66
2024/01/23 03:28:29;;;;;;;15.40;7.23;;;;;;;-4.48;100.00;99825.91;5061657;28;20410;-73
2024/01/23 03:30:55;;;;;;;16.40;7.47;;;;;;;-4.47;100.00;99837.97;5096182;28;20039;-66
2024/01/23 03:33:21;;;;;;;15.73;7.43;;;;;;;-4.39;100.00;99816.03;5079121;28;20044;-67
2024/01/23 03:35:49;;;;;;;16.97;7.67;;;;;;;-4.44;100.00;99838.69;5044947;28;20039;-66
2024/01/23 03:38:15;;;;;;;16.47;7.57;;;;;;;-4.38;100.00;99848.81;5094043;28;20502;-67
2024/01/23 03:40:41;;;;;;;16.07;7.40;;;;;;;-4.35;100.00;99838.34;5111346;28;20051;-65
2024/01/23 03:43:08;;;;;;;16.73;7.87;;;;;;;-4.30;100.00;99820.00;5061783;28;20047;-66
2024/01/23 03:45:34;;;;;;;17.70;7.90;;;;;;;-4.44;100.00;99820.56;5078526;28;20048;-65
2024/01/23 03:48:03;;;;;;;18.27;8.17;;;;;;;-4.33;100.00;99820.97;5111928;28;20065;-68
2024/01/23 03:50:29;;;;;;;11.73;7.37;;;;;;;-4.35;100.00;99859.06;5077763;28;20500;-65
2024/01/23 03:52:56;;;;;;;13.50;6.90;;;;;;;-4.38;100.00;99825.50;5093459;28;20066;-65
2024/01/23 03:55:25;;;;;;;14.63;7.43;;;;;;;-4.21;100.00;99833.44;5093480;28;20499;-65
2024/01/23 03:57:51;;;;;;;16.73;8.00;;;;;;;-4.29;100.00;99837.25;5076535;28;20047;-65
2024/01/23 04:00:19;;;;;;;17.40;7.90;;;;;;;-4.12;100.00;99835.66;5059838;28;20052;-64
2024/01/23 04:02:45;;;;;;;15.63;6.87;;;;;;;-4.32;100.00;99827.00;5059715;28;20040;-64
2024/01/23 04:05:10;;;;;;;16.33;7.67;;;;;;;-4.26;100.00;99822.41;5092635;28;20039;-63
2024/01/23 04:07:38;;;;;;;13.27;7.80;;;;;;;-4.20;100.00;99805.78;5093177;28;20519;-73
2024/01/23 04:10:04;;;;;;;20.70;9.03;;;;;;;-4.19;100.00;99815.22;5110928;28;20104;-73
2024/01/23 04:12:30;;;;;;;14.13;7.40;;;;;;;-4.29;100.00;99824.31;5076814;28;20048;-70
2024/01/23 04:14:58;;;;;;;17.67;8.57;;;;;;;-4.19;100.00;99836.81;5076657;28;20410;-73
2024/01/23 04:17:28;;;;;;;13.47;7.73;;;;;;;-4.09;100.00;99829.53;5060013;28;20043;-72
2024/01/23 04:19:54;;;;;;;16.33;8.50;;;;;;;-4.11;100.00;99823.56;5087918;28;20079;-72
2024/01/23 04:22:20;;;;;;;17.43;8.23;;;;;;;-4.15;100.00;99825.41;5110455;28;20042;-66
2024/01/23 04:24:46;;;;;;;17.90;8.57;;;;;;;-4.09;100.00;99842.50;5093126;28;20067;-71
2024/01/23 04:27:12;;;;;;;19.13;9.13;;;;;;;-4.12;100.00;99791.56;5093406;28;20141;-70
2024/01/23 04:29:40;;;;;;;14.90;8.37;;;;;;;-4.13;100.00;99794.22;5124715;27;20039;-71
2024/01/23 04:32:06;;;;;;;14.87;8.30;;;;;;;-4.08;100.00;99792.31;5097931;27;20043;-71
2024/01/23 04:34:32;;;;;;;16.60;7.67;;;;;;;-4.10;100.00;99786.31;5114542;27;20377;-67
2024/01/23 04:36:58;;;;;;;20.37;9.17;;;;;;;-3.97;100.00;99779.72;5112915;28;20088;-71
2024/01/23 04:39:23;;;;;;;23.53;9.50;;;;;;;-4.08;100.00;99798.34;5132682;27;20049;-70
2024/01/23 04:41:49;;;;;;;20.93;8.57;;;;;;;-4.02;100.00;99805.88;5131822;27;20038;-70
2024/01/23 04:44:15;;;;;;;19.57;9.73;;;;;;;-4.10;100.00;99788.91;5132227;27;20564;-68
2024/01/23 04:46:41;;;;;;;17.87;8.60;;;;;;;-4.15;100.00;99776.16;5113099;27;20044;-69
2024/01/23 04:49:09;;;;;;;16.67;9.03;;;;;;;-4.10;100.00;99773.34;5132939;27;20114;-72
2024/01/23 04:51:34;;;;;;;18.93;9.10;;;;;;;-4.08;100.00;99787.13;5082685;27;20073;-70
2024/01/23 04:54:02;;;;;;;15.80;8.33;;;;;;;-4.02;100.00;99772.16;5079330;27;20040;-70
2024/01/23 04:56:29;;;;;;;17.30;8.60;;;;;;;-3.97;100.00;99744.28;5133967;27;20133;-69
2024/01/23 04:58:59;;;;;;;20.37;9.60;;;;;;;-3.93;100.00;99779.53;5082296;28;20160;-68
2024/01/23 05:01:26;;;;;;;16.20;8.37;;;;;;;-3.91;100.00;99787.25;5063867;28;20058;-67
2024/01/23 05:03:56;;;;;;;20.02;9.32;;;;;;;-3.97;100.00;99785.78;5059970;27;20165;-68
2024/01/23 05:06:21;;;;;;;15.97;8.77;;;;;;;-3.99;100.00;99759.06;5096263;28;20134;-71
2024/01/23 05:08:47;;;;;;;20.57;8.97;;;;;;;-4.03;100.00;99770.44;5130223;28;20061;-70
2024/01/23 05:11:13;;;;;;;15.20;7.73;;;;;;;-4.06;100.00;99765.38;5112691;28;20039;-72
2024/01/23 05:13:46;;;;;;;19.13;9.23;;;;;;;-3.80;100.00;99767.72;5096245;28;20050;-70
2024/01/23 05:16:13;;;;;;;20.47;9.90;;;;;;;-3.95;100.00;99776.16;5134544;27;20058;-69
2024/01/23 05:18:40;;;;;;;19.27;9.80;;;;;;;-3.96;100.00;99739.91;5099271;27;20073;-68
2024/01/23 05:21:07;;;;;;;19.47;9.37;;;;;;;-3.97;100.00;99783.19;5041528;28;20141;-69
2024/01/23 05:23:36;;;;;;;19.53;10.13;;;;;;;-3.90;100.00;99740.50;5055187;28;20083;-68
2024/01/23 05:26:03;;;;;;;22.20;9.87;;;;;;;-3.86;100.00;99738.63;5055826;28;20063;-68
2024/01/23 05:28:30;;;;;;;20.20;9.70;;;;;;;-3.85;100.00;99743.75;5013244;28;20793;-70
2024/01/23 05:30:57;;;;;;;21.17;9.93;;;;;;;-3.83;100.00;99773.03;4953633;28;20059;-70
2024/01/23 05:33:28;;;;;;;22.87;9.97;;;;;;;-3.73;100.00;99774.34;4970065;28;20062;-70
2024/01/23 05:35:57;;;;;;;17.20;9.13;;;;;;;-3.75;100.00;99739.81;4953970;28;20047;-70
2024/01/23 05:38:27;;;;;;;20.00;9.63;;;;;;;-3.89;100.00;99778.47;4969418;28;20050;-71
2024/01/23 05:40:54;;;;;;;22.63;10.32;;;;;;;-3.82;100.00;99717.66;4950070;28;20501;-69
2024/01/23 05:43:22;;;;;;;18.77;10.10;;;;;;;-3.85;100.00;99725.59;4953317;28;20047;-70
2024/01/23 05:45:53;;;;;;;21.90;9.70;;;;;;;-3.89;100.00;99754.31;4918416;29;20707;-70
2024/01/23 05:48:19;;;;;;;20.77;9.67;;;;;;;-3.87;100.00;99704.03;4930815;29;20167;-70
2024/01/23 05:50:45;;;;;;;23.40;10.23;;;;;;;-3.83;100.00;99752.28;4883780;29;20063;-70
2024/01/23 05:53:13;;;;;;;18.07;9.20;;;;;;;-3.81;100.00;99742.69;4883678;29;20059;-70
2024/01/23 05:55:39;;;;;;;24.73;10.03;;;;;;;-3.90;100.00;99683.44;4935821;28;21190;-71
2024/01/23 05:58:05;;;;;;;18.83;9.27;;;;;;;-3.98;100.00;99724.41;4905858;28;20555;-71
2024/01/23 06:00:33;;;;;;;20.83;9.97;;;;;;;-3.73;100.00;99669.69;4992826;28;20172;-72
2024/01/23 06:02:59;;;;;;;20.10;10.10;;;;;;;-3.87;100.00;99714.41;5032775;28;20122;-72
2024/01/23 06:05:26;;;;;;;20.30;10.63;;;;;;;-3.70;100.00;99680.78;4991963;28;20089;-73
2024/01/23 06:07:53;;;;;;;20.97;10.63;;;;;;;-3.76;100.00;99688.84;4995688;28;20062;-71
2024/01/23 06:10:23;;;;;;;21.97;10.60;;;;;;;-3.80;100.00;99723.59;4995254;28;20104;-73
2024/01/23 06:12:52;;;;;;;20.53;10.40;;;;;;;-3.66;100.00;99703.09;4978616;28;20073;-74
2024/01/23 06:15:18;;;;;;;24.57;10.67;;;;;;;-3.78;100.00;99695.84;4995538;28;20057;-70
2024/01/23 06:17:49;;;;;;;22.47;10.67;;;;;;;-3.82;100.00;99693.47;4995496;28;20060;-72
2024/01/23 06:20:15;;;;;;;21.20;10.20;;;;;;;-3.75;100.00;99690.53;5031363;28;20045;-69
2024/01/23 06:22:43;;;;;;;18.23;9.97;;;;;;;-3.74;100.00;99740.69;5035780;28;20528;-69
2024/01/23 06:25:14;;;;;;;22.83;10.80;;;;;;;-3.69;100.00;99744.75;5018519;28;20057;-70
2024/01/23 06:27:41;;;;;;;24.23;10.82;;;;;;;-3.71;100.00;99736.22;5037196;28;20160;-70
2024/01/23 06:30:11;;;;;;;22.07;10.00;;;;;;;-3.68;100.00;99763.75;5064292;28;20068;-71
2024/01/23 06:32:43;;;;;;;23.10;11.10;;;;;;;-3.59;100.00;99753.81;5033616;28;20055;-71
2024/01/23 06:35:12;;;;;;;23.70;10.23;;;;;;;-3.64;100.00;99762.72;5071404;28;20482;-69
2024/01/23 06:37:40;;;;;;;29.63;10.83;;;;;;;-3.53;100.00;99791.63;5078899;28;20113;-70
2024/01/23 06:40:09;;;;;;;23.03;10.83;;;;;;;-3.54;100.00;99748.44;5096275;28;20067;-70
2024/01/23 06:42:36;;;;;;;22.63;10.83;;;;;;;-3.56;100.00;99799.56;5078598;28;20043;-70
2024/01/23 06:45:02;;;;;;;24.60;10.77;;;;;;;-3.63;100.00;99775.63;5079051;28;20112;-71
2024/01/23 06:47:30;;;;;;;21.37;11.10;;;;;;;-3.52;100.00;99763.00;5058137;28;20048;-71
2024/01/23 06:49:57;;;;;;;28.20;11.50;;;;;;;-3.47;100.00;99759.38;5041223;28;20060;-72
2024/01/23 06:52:30;;;;;;;22.80;11.13;;;;;;;-3.54;100.00;99758.81;4986252;28;20400;-70
2024/01/23 06:54:57;;;;;;;20.95;11.10;;;;;;;-3.52;100.00;99759.56;4994579;28;20077;-71
2024/01/23 06:57:24;;;;;;;21.07;10.93;;;;;;;-3.50;100.00;99775.94;4996970;28;20057;-69
2024/01/23 06:59:51;;;;;;;20.93;10.73;;;;;;;-3.46;100.00;99765.34;5029951;28;20041;-72
2024/01/23 07:02:18;;;;;;;25.33;11.37;;;;;;;-3.57;100.00;99824.66;4997389;28;20053;-70
2024/01/23 07:04:44;;;;;;;28.37;12.63;;;;;;;-3.47;100.00;99765.41;4981604;28;20037;-70
2024/01/23 07:07:10;;;;;;;21.57;11.00;;;;;;;-3.43;100.00;99785.16;4965260;28;20508;-70
2024/01/23 07:09:35;;;;;;;29.17;12.13;;;;;;;-3.45;100.00;99768.78;4997392;28;20053;-69
2024/01/23 07:12:03;;;;;;;26.33;12.27;;;;;;;-3.39;100.00;99785.84;5013167;28;20117;-70
2024/01/23 07:14:30;;;;;;;23.80;11.77;;;;;;;-3.35;100.00;99788.22;4980984;28;20491;-69
2024/01/23 07:16:57;;;;;;;28.27;12.33;;;;;;;-3.43;100.00;99837.06;4980864;28;20582;-68
2024/01/23 07:19:26;;;;;;;25.13;12.40;;;;;;;-3.31;100.00;99779.41;5014955;28;20044;-70
2024/01/23 07:21:53;;;;;;;29.40;11.70;;;;;;;-3.45;100.00;99807.72;5049295;28;20062;-70
2024/01/23 07:24:20;;;;;;;25.13;11.47;;;;;;;-3.53;100.00;99781.25;4973755;28;20046;-69
2024/01/23 07:26:46;;;;;;;23.50;11.10;;;;;;;-3.56;100.00;99758.03;4941855;28;20154;-68
2024/01/23 07:29:15;;;;;;;27.83;12.37;;;;;;;-3.50;100.00;99774.19;4950708;28;20058;-68
2024/01/23 07:31:44;;;;;;;27.97;11.47;;;;;;;-3.55;100.00;99781.31;4997431;28;20199;-69
2024/01/23 07:34:10;;;;;;;26.33;12.23;;;;;;;-3.52;100.00;99777.72;4998012;28;20060;-71
2024/01/23 07:36:37;;;;;;;20.60;10.53;;;;;;;-3.47;100.00;99787.03;4996723;28;20389;-69
2024/01/23 07:39:09;;;;;;;20.23;11.07;;;;;;;-3.44;100.00;99764.44;4997264;28;20259;-70
2024/01/23 07:41:36;;;;;;;26.10;11.60;;;;;;;-3.49;100.00;99752.50;4997092;28;20112;-68
2024/01/23 07:44:07;;;;;;;23.30;11.80;;;;;;;-3.49;100.00;99788.84;4998502;28;20568;-68
2024/01/23 07:46:33;;;;;;;24.53;11.63;;;;;;;-3.58;100.00;99750.31;4981483;28;20041;-70
2024/01/23 07:48:59;;;;;;;21.97;10.93;;;;;;;-3.62;100.00;99805.00;5014263;28;20053;-69
2024/01/23 07:51:27;;;;;;;21.20;10.47;;;;;;;-3.67;100.00;99800.03;4964391;28;20049;-71
2024/01/23 07:53:53;;;;;;;24.87;11.07;;;;;;;-3.55;100.00;99759.69;5013177;28;20128;-72
2024/01/23 07:56:19;;;;;;;23.33;10.90;;;;;;;-3.60;100.00;99788.47;5035479;28;20147;-72
2024/01/23 07:58:46;;;;;;;24.17;12.53;;;;;;;-3.57;100.00;99741.59;5040679;28;20048;-73
2024/01/23 08:01:17;;;;;;;22.40;11.43;;;;;;;-3.46;100.00;99778.31;5072821;28;20442;-72
2024/01/23 08:03:45;;;;;;;25.07;11.40;;;;;;;-3.37;100.00;99776.22;5072918;28;20048;-72
2024/01/23 08:06:17;;;;;;;28.73;11.73;;;;;;;-3.52;100.00;99791.56;5056276;28;20083;-72
2024/01/23 08:08:46;;;;;;;25.57;11.93;;;;;;;-3.37;100.00;99771.03;5056342;28;20048;-73
2024/01/23 08:11:15;;;;;;;24.70;12.43;;;;;;;-3.44;100.00;99752.28;5039339;28;20052;-72
2024/01/23 08:13:46;;;;;;;22.97;11.43;;;;;;;-3.49;100.00;99747.31;5044619;27;20537;-73
2024/01/23 08:16:14;;;;;;;26.37;11.77;;;;;;;-3.46;100.00;99791.28;5096475;27;20049;-72
2024/01/23 08:18:41;;;;;;;27.50;12.03;;;;;;;-3.30;100.00;99790.59;5063779;27;20096;-71
2024/01/23 08:21:09;;;;;;;24.20;10.63;;;;;;;-3.45;100.00;99776.56;5063528;27;20517;-73
2024/01/23 08:23:37;;;;;;;27.47;11.97;;;;;;;-3.38;100.00;99780.56;5062772;27;20066;-72
2024/01/23 08:26:11;;;;;;;27.83;11.97;;;;;;;-3.33;100.00;99767.38;5052168;28;20114;-71
2024/01/23 08:28:42;;;;;;;23.23;11.93;;;;;;;-3.35;100.00;99782.22;5011681;28;20460;-73
2024/01/23 08:31:08;;;;;;;22.60;10.95;;;;;;;-3.31;100.00;99778.56;4971745;28;20049;-69
2024/01/23 08:33:35;;;;;;;24.93;11.67;;;;;;;-3.39;100.00;99799.66;4979773;28;20049;-70
2024/01/23 08:36:04;;;;;;;31.27;11.60;;;;;;;-3.22;100.00;99778.13;5030794;28;20159;-70
2024/01/23 08:38:30;;;;;;;23.07;11.50;;;;;;;-3.28;100.00;99809.56;5026192;28;20160;-70
2024/01/23 08:40:57;;;;;;;19.87;10.63;;;;;;;-3.29;100.00;99802.69;4973861;28;20152;-70
2024/01/23 08:43:23;;;;;;;24.87;12.07;;;;;;;-3.32;100.00;99766.50;5018880;28;20211;-71
2024/01/23 08:45:49;;;;;;;24.73;12.17;;;;;;;-3.25;100.00;99776.53;5002570;28;20045;-70
2024/01/23 08:48:22;;;;;;;25.70;12.47;;;;;;;-3.27;100.00;99780.09;4984525;28;20044;-69
2024/01/23 08:50:50;;;;;;;24.93;11.33;;;;;;;-3.19;100.00;99790.97;4985396;28;20053;-70
2024/01/23 08:53:17;;;;;;;24.90;11.43;;;;;;;-3.22;100.00;99767.75;5003259;28;20232;-71
2024/01/23 08:55:42;;;;;;;22.53;12.17;;;;;;;-3.32;100.00;99766.50;5013841;28;20045;-67
2024/01/23 08:58:09;;;;;;;25.20;12.10;;;;;;;-3.28;100.00;99781.00;5014385;28;20055;-68
2024/01/23 09:00:35;;;;;;;25.43;12.03;;;;;;;-3.24;100.00;99780.81;5083977;28;20048;-67
2024/01/23 09:03:00;;;;;;;22.70;11.60;;;;;;;-3.28;100.00;99768.03;5083371;27;20399;-69
2024/01/23 09:05:28;;;;;;;27.57;13.23;;;;;;;-3.21;100.00;99754.69;5128511;27;20121;-67
2024/01/23 09:07:53;;;;;;;25.47;12.33;;;;;;;-3.25;100.00;99727.19;5094804;28;20039;-68
2024/01/23 09:10:19;;;;;;;25.17;12.00;;;;;;;-3.21;100.00;99748.69;5095025;28;20058;-69
2024/01/23 09:12:45;;;;;;;29.00;12.53;;;;;;;-3.20;100.00;99745.16;5093632;28;20514;-70
2024/01/23 09:15:11;;;;;;;26.40;13.07;;;;;;;-3.20;100.00;99745.16;5109770;28;20042;-68
2024/01/23 09:17:37;;;;;;;19.33;11.00;;;;;;;-3.21;100.00;99772.88;5111341;28;20050;-68
2024/01/23 09:20:06;;;;;;;28.00;11.50;;;;;;;-3.19;100.00;99747.69;5094641;28;20134;-68
2024/01/23 09:22:31;;;;;;;29.37;13.20;;;;;;;-3.17;100.00;99750.22;5111402;28;20035;-67
2024/01/23 09:24:59;;;;;;;23.17;11.63;;;;;;;-3.06;100.00;99750.56;5112241;28;20047;-68
2024/01/23 09:27:29;;;;;;;25.20;11.50;;;;;;;-3.25;100.00;99731.53;5114797;28;20532;-68
2024/01/23 09:29:55;;;;;;;23.07;11.63;;;;;;;-3.14;100.00;99721.50;5130709;28;20044;-68
2024/01/23 09:32:21;;;;;;;24.33;11.87;;;;;;;-3.10;100.00;99746.41;5110785;27;20032;-68
2024/01/23 09:34:47;;;;;;;26.83;11.63;;;;;;;-3.10;100.00;99749.00;5130893;27;20080;-68
2024/01/23 09:37:13;;;;;;;26.43;10.97;;;;;;;-3.03;100.00;99763.41;5130992;27;20051;-67
2024/01/23 09:39:39;;;;;;;22.03;12.03;;;;;;;-3.07;100.00;99741.91;5124388;27;20429;-68
2024/01/23 09:42:10;;;;;;;31.70;12.33;;;;;;;-2.91;100.00;99742.06;5117823;27;20039;-69
2024/01/23 09:44:36;;;;;;;29.13;13.48;;;;;;;-2.93;100.00;99733.47;5136022;27;20061;-66
2024/01/23 09:47:03;;;;;;;22.70;11.53;;;;;;;-2.96;100.00;99728.41;5134516;27;20035;-68
2024/01/23 09:49:31;;;;;;;23.00;11.40;;;;;;;-2.95;100.00;99756.94;5134623;27;20131;-68
2024/01/23 09:52:00;;;;;;;27.53;11.80;;;;;;;-2.84;100.00;99733.88;5116975;27;20050;-65
2024/01/23 09:54:27;;;;;;;27.27;12.27;;;;;;;-2.96;100.00;99729.28;5117474;27;20194;-65
2024/01/23 09:56:53;;;;;;;26.70;11.97;;;;;;;-2.92;100.00;99749.00;5135490;27;20115;-65
2024/01/23 09:59:20;;;;;;;26.43;12.57;;;;;;;-2.88;100.00;99768.75;5118630;27;20055;-65
2024/01/23 10:01:47;;;;;;;25.07;12.60;;;;;;;-2.90;100.00;99718.59;5135589;27;20046;-64
2024/01/23 10:04:15;;;;;;;25.97;11.47;;;;;;;-2.81;100.00;99732.88;5135136;27;20413;-65
2024/01/23 10:06:41;;;;;;;23.67;12.30;;;;;;;-2.81;100.00;99715.56;5135019;27;20058;-64
2024/01/23 10:09:07;;;;;;;24.67;12.80;;;;;;;-2.86;100.00;99706.31;5135724;27;20046;-66
2024/01/23 10:11:35;;;;;;;27.70;12.70;;;;;;;-2.78;100.00;99722.38;5100874;27;20070;-63
2024/01/23 10:14:02;;;;;;;27.90;13.60;;;;;;;-2.78;100.00;99714.59;5134216;27;20482;-66
2024/01/23 10:16:28;;;;;;;28.70;12.23;;;;;;;-2.79;100.00;99697.28;5116455;27;20039;-65
2024/01/23 10:18:54;;;;;;;23.40;11.37;;;;;;;-2.71;100.00;99744.53;5115096;27;20046;-66
2024/01/23 10:21:21;;;;;;;24.17;12.33;;;;;;;-2.72;100.00;99715.09;5133304;27;20050;-65
2024/01/23 10:23:51;;;;;;;25.80;11.70;;;;;;;-2.63;100.00;99722.47;5133524;27;20194;-66
2024/01/23 10:26:17;;;;;;;25.20;12.53;;;;;;;-2.66;100.00;99704.41;5134329;27;20089;-66
2024/01/23 10:28:43;;;;;;;27.07;11.60;;;;;;;-2.69;100.00;99691.56;5099002;27;20566;-66
2024/01/23 10:31:10;;;;;;;24.27;11.83;;;;;;;-2.66;100.00;99711.38;5116439;27;20138;-65
2024/01/23 10:33:37;;;;;;;23.20;11.40;;;;;;;-2.64;100.00;99694.78;5040829;28;20105;-64
2024/01/23 10:36:08;;;;;;;24.90;11.93;;;;;;;-2.54;100.00;99711.63;5092062;28;20060;-65
2024/01/23 10:38:37;;;;;;;28.58;12.18;;;;;;;-2.61;100.00;99701.59;5090411;28;20572;-63
2024/01/23 10:41:07;;;;;;;23.87;11.57;;;;;;;-2.58;100.00;99676.28;5055114;28;20479;-63
2024/01/23 10:43:34;;;;;;;26.10;12.13;;;;;;;-2.66;100.00;99696.63;5071575;28;20112;-64
2024/01/23 10:46:04;;;;;;;24.40;12.00;;;;;;;-2.61;100.00;99706.78;5088576;28;20050;-64
2024/01/23 10:48:32;;;;;;;23.80;12.37;;;;;;;-2.52;100.00;99725.38;5088749;28;20480;-65
2024/01/23 10:51:03;;;;;;;26.27;11.37;;;;;;;-2.54;100.00;99721.19;5070837;28;20162;-64
2024/01/23 10:53:33;;;;;;;;;;;;;;;-2.48;100.00;99700.94;5070998;28;20062;-64
2024/01/23 10:56:00;;;;;;;23.35;11.85;;;;;;;-2.63;100.00;99725.06;5088181;28;19942;-65
2024/01/23 10:58:35;;;;;;;26.80;12.30;;;;;;;-2.47;100.00;99693.97;5070895;28;20052;-64
2024/01/23 11:01:03;;;;;;;29.67;12.23;;;;;;;-2.60;100.00;99731.88;5054745;28;20086;-65
2024/01/23 11:03:32;;;;;;;24.03;11.63;;;;;;;-2.56;100.00;99731.66;5073196;27;20051;-65
2024/01/23 11:06:01;;;;;;;19.97;11.03;;;;;;;-2.57;100.00;99724.78;5113408;27;20042;-65
2024/01/23 11:08:29;;;;;;;23.83;11.43;;;;;;;-2.57;100.00;99710.94;5129350;27;20516;-64
2024/01/23 11:11:17;;;;;;;22.97;12.10;;;;;;;-2.45;100.00;99733.72;5128498;27;20049;-65
2024/01/23 11:13:46;;;;;;;26.97;11.97;;;;;;;-2.50;100.00;99725.31;5128271;27;20047;-62